sensor_id;sensor_type;location;lat;lon;timestamp;P1;durP1;ratioP1;P2;durP2;ratioP2
25073;SDS011;13066;52.042;5.648;2023-12-07T00:01:14;28.77;;;20.40;;
25073;SDS011;13066;52.042;5.648;2023-12-07T00:03:42;28.25;;;20.08;;
25073;SDS011;13066;52.042;5.648;2023-12-07T00:06:12;30.88;;;20.92;;
25073;SDS011;13066;52.042;5.648;2023-12-07T00:08:40;28.77;;;20.45;;
25073;SDS011;13066;52.042;5.648;2023-12-07T00:11:08;27.88;;;19.45;;
25073;SDS011;13066;52.042;5.648;2023-12-07T00:13:36;28.85;;;19.67;;
25073;SDS011;13066;52.042;5.648;2023-12-07T00:16:05;29.00;;;19.00;;
25073;SDS011;13066;52.042;5.648;2023-12-07T00:18:33;25.75;;;18.02;;
25073;SDS011;13066;52.042;5.648;2023-12-07T00:21:02;27.13;;;17.85;;
25073;SDS011;13066;52.042;5.648;2023-12-07T00:23:30;25.95;;;18.67;;
25073;SDS011;13066;52.042;5.648;2023-12-07T00:25:59;26.92;;;17.85;;
25073;SDS011;13066;52.042;5.648;2023-12-07T00:28:27;23.42;;;17.10;;
25073;SDS011;13066;52.042;5.648;2023-12-07T00:30:55;26.33;;;17.95;;
25073;SDS011;13066;52.042;5.648;2023-12-07T00:33:24;24.45;;;16.83;;
25073;SDS011;13066;52.042;5.648;2023-12-07T00:35:51;22.88;;;16.98;;
25073;SDS011;13066;52.042;5.648;2023-12-07T00:38:19;22.38;;;15.95;;
25073;SDS011;13066;52.042;5.648;2023-12-07T00:40:49;19.75;;;15.40;;
25073;SDS011;13066;52.042;5.648;2023-12-07T00:43:17;22.70;;;15.07;;
25073;SDS011;13066;52.042;5.648;2023-12-07T00:45:45;23.73;;;16.05;;
25073;SDS011;13066;52.042;5.648;2023-12-07T00:48:13;25.42;;;15.93;;
25073;SDS011;13066;52.042;5.648;2023-12-07T00:50:42;23.02;;;16.05;;
25073;SDS011;13066;52.042;5.648;2023-12-07T00:53:10;22.00;;;16.38;;
25073;SDS011;13066;52.042;5.648;2023-12-07T00:55:38;22.92;;;15.30;;
25073;SDS011;13066;52.042;5.648;2023-12-07T00:58:08;21.88;;;15.13;;
25073;SDS011;13066;52.042;5.648;2023-12-07T01:00:36;21.85;;;15.52;;
25073;SDS011;13066;52.042;5.648;2023-12-07T01:03:04;23.92;;;15.10;;
25073;SDS011;13066;52.042;5.648;2023-12-07T01:05:32;22.77;;;15.18;;
25073;SDS011;13066;52.042;5.648;2023-12-07T01:08:01;23.27;;;15.65;;
25073;SDS011;13066;52.042;5.648;2023-12-07T01:10:28;20.60;;;14.68;;
25073;SDS011;13066;52.042;5.648;2023-12-07T01:12:56;19.90;;;14.23;;
25073;SDS011;13066;52.042;5.648;2023-12-07T01:15:25;23.40;;;16.17;;
25073;SDS011;13066;52.042;5.648;2023-12-07T01:17:53;21.40;;;15.52;;
25073;SDS011;13066;52.042;5.648;2023-12-07T01:20:22;20.92;;;15.55;;
25073;SDS011;13066;52.042;5.648;2023-12-07T01:22:50;21.10;;;14.00;;
25073;SDS011;13066;52.042;5.648;2023-12-07T01:25:53;18.98;;;13.75;;
25073;SDS011;13066;52.042;5.648;2023-12-07T01:28:22;24.27;;;15.60;;
25073;SDS011;13066;52.042;5.648;2023-12-07T01:30:51;19.70;;;13.20;;
25073;SDS011;13066;52.042;5.648;2023-12-07T01:33:19;19.38;;;13.05;;
25073;SDS011;13066;52.042;5.648;2023-12-07T01:35:48;18.67;;;13.30;;
25073;SDS011;13066;52.042;5.648;2023-12-07T01:38:16;18.77;;;12.23;;
25073;SDS011;13066;52.042;5.648;2023-12-07T01:40:46;20.13;;;13.23;;
25073;SDS011;13066;52.042;5.648;2023-12-07T01:43:14;20.23;;;13.07;;
25073;SDS011;13066;52.042;5.648;2023-12-07T01:45:42;21.77;;;13.23;;
25073;SDS011;13066;52.042;5.648;2023-12-07T01:48:12;20.10;;;12.52;;
25073;SDS011;13066;52.042;5.648;2023-12-07T01:50:41;16.58;;;12.00;;
25073;SDS011;13066;52.042;5.648;2023-12-07T01:53:09;18.33;;;12.43;;
25073;SDS011;13066;52.042;5.648;2023-12-07T01:55:39;18.35;;;12.45;;
25073;SDS011;13066;52.042;5.648;2023-12-07T01:58:07;19.30;;;12.73;;
25073;SDS011;13066;52.042;5.648;2023-12-07T02:00:35;18.38;;;12.73;;
25073;SDS011;13066;52.042;5.648;2023-12-07T02:03:04;19.08;;;12.85;;
25073;SDS011;13066;52.042;5.648;2023-12-07T02:05:34;20.38;;;13.60;;
25073;SDS011;13066;52.042;5.648;2023-12-07T02:08:03;20.35;;;13.00;;
25073;SDS011;13066;52.042;5.648;2023-12-07T02:10:32;20.95;;;13.63;;
25073;SDS011;13066;52.042;5.648;2023-12-07T02:13:00;19.13;;;12.50;;
25073;SDS011;13066;52.042;5.648;2023-12-07T02:15:29;18.90;;;13.25;;
25073;SDS011;13066;52.042;5.648;2023-12-07T02:17:59;18.15;;;12.73;;
25073;SDS011;13066;52.042;5.648;2023-12-07T02:20:31;19.73;;;13.07;;
25073;SDS011;13066;52.042;5.648;2023-12-07T02:23:06;19.10;;;13.13;;
25073;SDS011;13066;52.042;5.648;2023-12-07T02:25:36;20.52;;;13.00;;
25073;SDS011;13066;52.042;5.648;2023-12-07T02:28:14;18.45;;;12.63;;
25073;SDS011;13066;52.042;5.648;2023-12-07T02:30:43;17.50;;;12.85;;
25073;SDS011;13066;52.042;5.648;2023-12-07T02:33:11;16.77;;;12.50;;
25073;SDS011;13066;52.042;5.648;2023-12-07T02:35:40;19.23;;;12.77;;
25073;SDS011;13066;52.042;5.648;2023-12-07T02:38:08;17.88;;;12.63;;
25073;SDS011;13066;52.042;5.648;2023-12-07T02:40:36;20.23;;;13.43;;
25073;SDS011;13066;52.042;5.648;2023-12-07T02:43:05;19.02;;;12.25;;
25073;SDS011;13066;52.042;5.648;2023-12-07T02:45:35;18.23;;;12.50;;
25073;SDS011;13066;52.042;5.648;2023-12-07T02:48:04;17.33;;;12.98;;
25073;SDS011;13066;52.042;5.648;2023-12-07T02:50:32;17.15;;;12.02;;
25073;SDS011;13066;52.042;5.648;2023-12-07T02:53:01;17.05;;;12.07;;
25073;SDS011;13066;52.042;5.648;2023-12-07T02:55:29;17.38;;;11.65;;
25073;SDS011;13066;52.042;5.648;2023-12-07T02:57:57;17.02;;;12.30;;
25073;SDS011;13066;52.042;5.648;2023-12-07T03:00:25;17.20;;;12.27;;
25073;SDS011;13066;52.042;5.648;2023-12-07T03:02:54;18.20;;;12.02;;
25073;SDS011;13066;52.042;5.648;2023-12-07T03:05:22;16.10;;;10.93;;
25073;SDS011;13066;52.042;5.648;2023-12-07T03:07:50;14.95;;;11.18;;
25073;SDS011;13066;52.042;5.648;2023-12-07T03:10:18;17.75;;;12.05;;
25073;SDS011;13066;52.042;5.648;2023-12-07T03:12:47;15.45;;;11.63;;
25073;SDS011;13066;52.042;5.648;2023-12-07T03:15:15;16.17;;;11.90;;
25073;SDS011;13066;52.042;5.648;2023-12-07T03:17:43;15.07;;;11.50;;
25073;SDS011;13066;52.042;5.648;2023-12-07T03:20:13;15.75;;;12.00;;
25073;SDS011;13066;52.042;5.648;2023-12-07T03:22:41;16.17;;;12.60;;
25073;SDS011;13066;52.042;5.648;2023-12-07T03:25:10;15.77;;;12.40;;
25073;SDS011;13066;52.042;5.648;2023-12-07T03:27:38;16.92;;;12.50;;
25073;SDS011;13066;52.042;5.648;2023-12-07T03:30:07;15.32;;;12.32;;
25073;SDS011;13066;52.042;5.648;2023-12-07T03:32:35;16.65;;;12.23;;
25073;SDS011;13066;52.042;5.648;2023-12-07T03:35:04;18.55;;;12.73;;
25073;SDS011;13066;52.042;5.648;2023-12-07T03:37:34;17.00;;;12.63;;
25073;SDS011;13066;52.042;5.648;2023-12-07T03:40:03;15.93;;;12.00;;
25073;SDS011;13066;52.042;5.648;2023-12-07T03:42:33;16.50;;;12.18;;
25073;SDS011;13066;52.042;5.648;2023-12-07T03:45:21;15.77;;;12.68;;
25073;SDS011;13066;52.042;5.648;2023-12-07T03:47:49;15.23;;;12.18;;
25073;SDS011;13066;52.042;5.648;2023-12-07T03:50:17;17.98;;;13.30;;
25073;SDS011;13066;52.042;5.648;2023-12-07T03:52:47;17.02;;;12.80;;
25073;SDS011;13066;52.042;5.648;2023-12-07T03:55:15;15.90;;;12.38;;
25073;SDS011;13066;52.042;5.648;2023-12-07T03:57:43;13.70;;;11.82;;
25073;SDS011;13066;52.042;5.648;2023-12-07T04:00:12;17.98;;;12.82;;
25073;SDS011;13066;52.042;5.648;2023-12-07T04:02:41;16.88;;;12.68;;
25073;SDS011;13066;52.042;5.648;2023-12-07T04:05:09;15.55;;;12.30;;
25073;SDS011;13066;52.042;5.648;2023-12-07T04:07:39;15.90;;;12.07;;
25073;SDS011;13066;52.042;5.648;2023-12-07T04:10:10;15.10;;;12.60;;
25073;SDS011;13066;52.042;5.648;2023-12-07T04:12:38;17.48;;;13.70;;
25073;SDS011;13066;52.042;5.648;2023-12-07T04:15:07;16.98;;;13.27;;
25073;SDS011;13066;52.042;5.648;2023-12-07T04:17:35;18.30;;;13.38;;
25073;SDS011;13066;52.042;5.648;2023-12-07T04:20:04;18.95;;;13.90;;
25073;SDS011;13066;52.042;5.648;2023-12-07T04:22:32;16.73;;;13.60;;
25073;SDS011;13066;52.042;5.648;2023-12-07T04:25:00;20.92;;;14.57;;
25073;SDS011;13066;52.042;5.648;2023-12-07T04:27:30;18.23;;;13.70;;
25073;SDS011;13066;52.042;5.648;2023-12-07T04:29:58;17.98;;;13.82;;
25073;SDS011;13066;52.042;5.648;2023-12-07T04:32:26;19.38;;;14.02;;
25073;SDS011;13066;52.042;5.648;2023-12-07T04:34:54;19.17;;;13.77;;
25073;SDS011;13066;52.042;5.648;2023-12-07T04:37:23;18.55;;;14.25;;
25073;SDS011;13066;52.042;5.648;2023-12-07T04:39:51;18.45;;;13.25;;
25073;SDS011;13066;52.042;5.648;2023-12-07T04:42:19;17.73;;;14.10;;
25073;SDS011;13066;52.042;5.648;2023-12-07T04:44:49;20.10;;;14.82;;
25073;SDS011;13066;52.042;5.648;2023-12-07T04:47:17;18.40;;;14.55;;
25073;SDS011;13066;52.042;5.648;2023-12-07T04:49:45;21.20;;;14.48;;
25073;SDS011;13066;52.042;5.648;2023-12-07T04:52:13;18.83;;;15.27;;
25073;SDS011;13066;52.042;5.648;2023-12-07T04:54:42;21.23;;;15.68;;
25073;SDS011;13066;52.042;5.648;2023-12-07T04:57:10;21.02;;;15.90;;
25073;SDS011;13066;52.042;5.648;2023-12-07T04:59:38;22.08;;;16.60;;
25073;SDS011;13066;52.042;5.648;2023-12-07T05:02:08;22.38;;;16.73;;
25073;SDS011;13066;52.042;5.648;2023-12-07T05:04:36;25.58;;;18.40;;
25073;SDS011;13066;52.042;5.648;2023-12-07T05:07:04;24.13;;;18.55;;
25073;SDS011;13066;52.042;5.648;2023-12-07T05:09:32;23.42;;;18.20;;
25073;SDS011;13066;52.042;5.648;2023-12-07T05:12:00;25.17;;;18.02;;
25073;SDS011;13066;52.042;5.648;2023-12-07T05:14:28;26.08;;;18.67;;
25073;SDS011;13066;52.042;5.648;2023-12-07T05:16:56;24.15;;;18.55;;
25073;SDS011;13066;52.042;5.648;2023-12-07T05:19:25;27.20;;;20.00;;
25073;SDS011;13066;52.042;5.648;2023-12-07T05:21:54;23.02;;;18.38;;
25073;SDS011;13066;52.042;5.648;2023-12-07T05:24:22;25.27;;;19.48;;
25073;SDS011;13066;52.042;5.648;2023-12-07T05:26:50;24.67;;;18.33;;
25073;SDS011;13066;52.042;5.648;2023-12-07T05:29:18;25.40;;;18.83;;
25073;SDS011;13066;52.042;5.648;2023-12-07T05:31:48;23.00;;;18.88;;
25073;SDS011;13066;52.042;5.648;2023-12-07T05:34:16;24.38;;;18.85;;
25073;SDS011;13066;52.042;5.648;2023-12-07T05:36:45;22.83;;;17.80;;
25073;SDS011;13066;52.042;5.648;2023-12-07T05:39:15;23.38;;;17.42;;
25073;SDS011;13066;52.042;5.648;2023-12-07T05:41:43;24.92;;;19.25;;
25073;SDS011;13066;52.042;5.648;2023-12-07T05:44:13;21.63;;;17.42;;
25073;SDS011;13066;52.042;5.648;2023-12-07T05:46:48;22.50;;;18.05;;
25073;SDS011;13066;52.042;5.648;2023-12-07T05:49:16;20.77;;;17.08;;
25073;SDS011;13066;52.042;5.648;2023-12-07T05:51:45;21.67;;;16.98;;
25073;SDS011;13066;52.042;5.648;2023-12-07T05:54:14;21.77;;;17.00;;
25073;SDS011;13066;52.042;5.648;2023-12-07T05:56:42;19.85;;;16.10;;
25073;SDS011;13066;52.042;5.648;2023-12-07T05:59:11;19.10;;;15.23;;
25073;SDS011;13066;52.042;5.648;2023-12-07T06:01:39;21.25;;;16.60;;
25073;SDS011;13066;52.042;5.648;2023-12-07T06:04:08;21.92;;;17.50;;
25073;SDS011;13066;52.042;5.648;2023-12-07T06:06:36;20.48;;;16.17;;
25073;SDS011;13066;52.042;5.648;2023-12-07T06:09:06;22.05;;;17.45;;
25073;SDS011;13066;52.042;5.648;2023-12-07T06:11:35;22.25;;;17.17;;
25073;SDS011;13066;52.042;5.648;2023-12-07T06:14:03;21.55;;;16.50;;
25073;SDS011;13066;52.042;5.648;2023-12-07T06:16:33;22.30;;;17.83;;
25073;SDS011;13066;52.042;5.648;2023-12-07T06:19:01;23.27;;;17.05;;
25073;SDS011;13066;52.042;5.648;2023-12-07T06:21:31;23.05;;;16.95;;
25073;SDS011;13066;52.042;5.648;2023-12-07T06:24:00;21.83;;;17.23;;
25073;SDS011;13066;52.042;5.648;2023-12-07T06:26:30;21.15;;;16.35;;
25073;SDS011;13066;52.042;5.648;2023-12-07T06:28:58;23.08;;;16.40;;
25073;SDS011;13066;52.042;5.648;2023-12-07T06:31:26;19.75;;;15.35;;
25073;SDS011;13066;52.042;5.648;2023-12-07T06:33:54;21.27;;;16.83;;
25073;SDS011;13066;52.042;5.648;2023-12-07T06:36:22;19.58;;;15.90;;
25073;SDS011;13066;52.042;5.648;2023-12-07T06:38:52;20.10;;;16.15;;
25073;SDS011;13066;52.042;5.648;2023-12-07T06:41:21;19.13;;;15.73;;
25073;SDS011;13066;52.042;5.648;2023-12-07T06:43:51;20.02;;;16.15;;
25073;SDS011;13066;52.042;5.648;2023-12-07T06:46:22;20.48;;;15.50;;
25073;SDS011;13066;52.042;5.648;2023-12-07T06:48:50;20.27;;;15.85;;
25073;SDS011;13066;52.042;5.648;2023-12-07T06:51:18;21.60;;;16.13;;
25073;SDS011;13066;52.042;5.648;2023-12-07T06:53:46;19.63;;;16.20;;
25073;SDS011;13066;52.042;5.648;2023-12-07T06:56:15;19.88;;;15.98;;
25073;SDS011;13066;52.042;5.648;2023-12-07T06:58:43;20.27;;;15.30;;
25073;SDS011;13066;52.042;5.648;2023-12-07T07:01:13;18.52;;;15.35;;
25073;SDS011;13066;52.042;5.648;2023-12-07T07:03:41;18.55;;;15.05;;
25073;SDS011;13066;52.042;5.648;2023-12-07T07:06:10;17.60;;;14.10;;
25073;SDS011;13066;52.042;5.648;2023-12-07T07:08:40;18.45;;;14.48;;
25073;SDS011;13066;52.042;5.648;2023-12-07T07:11:12;16.15;;;14.07;;
25073;SDS011;13066;52.042;5.648;2023-12-07T07:16:10;18.35;;;12.98;;
25073;SDS011;13066;52.042;5.648;2023-12-07T07:18:39;17.42;;;13.70;;
25073;SDS011;13066;52.042;5.648;2023-12-07T07:21:08;17.92;;;14.65;;
25073;SDS011;13066;52.042;5.648;2023-12-07T07:23:36;16.10;;;13.88;;
25073;SDS011;13066;52.042;5.648;2023-12-07T07:26:04;17.08;;;13.95;;
25073;SDS011;13066;52.042;5.648;2023-12-07T07:28:33;18.63;;;14.25;;
25073;SDS011;13066;52.042;5.648;2023-12-07T07:31:01;18.45;;;14.18;;
25073;SDS011;13066;52.042;5.648;2023-12-07T07:33:30;17.00;;;14.27;;
25073;SDS011;13066;52.042;5.648;2023-12-07T07:36:00;17.38;;;14.30;;
25073;SDS011;13066;52.042;5.648;2023-12-07T07:38:28;17.88;;;14.52;;
25073;SDS011;13066;52.042;5.648;2023-12-07T07:40:56;18.35;;;15.02;;
25073;SDS011;13066;52.042;5.648;2023-12-07T07:43:25;19.63;;;14.15;;
25073;SDS011;13066;52.042;5.648;2023-12-07T07:45:53;15.98;;;14.00;;
25073;SDS011;13066;52.042;5.648;2023-12-07T07:48:22;18.77;;;15.43;;
25073;SDS011;13066;52.042;5.648;2023-12-07T07:50:53;18.05;;;14.40;;
25073;SDS011;13066;52.042;5.648;2023-12-07T07:53:22;21.52;;;15.63;;
25073;SDS011;13066;52.042;5.648;2023-12-07T07:55:50;17.63;;;14.70;;
25073;SDS011;13066;52.042;5.648;2023-12-07T07:58:19;16.77;;;14.25;;
25073;SDS011;13066;52.042;5.648;2023-12-07T08:00:47;18.35;;;14.90;;
25073;SDS011;13066;52.042;5.648;2023-12-07T08:03:15;17.45;;;14.93;;
25073;SDS011;13066;52.042;5.648;2023-12-07T08:05:43;18.73;;;15.68;;
25073;SDS011;13066;52.042;5.648;2023-12-07T08:08:12;21.50;;;16.33;;
25073;SDS011;13066;52.042;5.648;2023-12-07T08:10:41;19.08;;;15.95;;
25073;SDS011;13066;52.042;5.648;2023-12-07T08:13:21;21.52;;;16.58;;
25073;SDS011;13066;52.042;5.648;2023-12-07T08:15:50;21.35;;;16.52;;
25073;SDS011;13066;52.042;5.648;2023-12-07T08:18:23;18.08;;;15.00;;
25073;SDS011;13066;52.042;5.648;2023-12-07T08:20:53;18.92;;;14.73;;
25073;SDS011;13066;52.042;5.648;2023-12-07T08:23:21;16.38;;;14.02;;
25073;SDS011;13066;52.042;5.648;2023-12-07T08:25:50;20.45;;;15.52;;
25073;SDS011;13066;52.042;5.648;2023-12-07T08:28:19;19.73;;;15.27;;
25073;SDS011;13066;52.042;5.648;2023-12-07T08:30:47;18.55;;;14.65;;
25073;SDS011;13066;52.042;5.648;2023-12-07T08:33:15;18.85;;;15.75;;
25073;SDS011;13066;52.042;5.648;2023-12-07T08:35:43;19.17;;;15.73;;
25073;SDS011;13066;52.042;5.648;2023-12-07T08:38:11;20.23;;;16.92;;
25073;SDS011;13066;52.042;5.648;2023-12-07T08:40:40;20.17;;;16.67;;
25073;SDS011;13066;52.042;5.648;2023-12-07T08:43:10;21.85;;;18.08;;
25073;SDS011;13066;52.042;5.648;2023-12-07T08:45:38;23.52;;;19.27;;
25073;SDS011;13066;52.042;5.648;2023-12-07T08:48:06;27.70;;;21.13;;
25073;SDS011;13066;52.042;5.648;2023-12-07T08:50:34;25.73;;;20.17;;
25073;SDS011;13066;52.042;5.648;2023-12-07T08:53:02;26.80;;;20.27;;
25073;SDS011;13066;52.042;5.648;2023-12-07T08:55:31;26.08;;;20.40;;
25073;SDS011;13066;52.042;5.648;2023-12-07T08:58:00;25.17;;;19.55;;
25073;SDS011;13066;52.042;5.648;2023-12-07T09:00:33;28.10;;;20.85;;
25073;SDS011;13066;52.042;5.648;2023-12-07T09:03:01;30.20;;;21.77;;
25073;SDS011;13066;52.042;5.648;2023-12-07T09:05:29;28.45;;;21.45;;
25073;SDS011;13066;52.042;5.648;2023-12-07T09:07:58;26.98;;;21.02;;
25073;SDS011;13066;52.042;5.648;2023-12-07T09:10:26;26.08;;;20.50;;
25073;SDS011;13066;52.042;5.648;2023-12-07T09:12:54;24.25;;;19.90;;
25073;SDS011;13066;52.042;5.648;2023-12-07T09:15:23;25.88;;;19.88;;
25073;SDS011;13066;52.042;5.648;2023-12-07T09:17:53;25.60;;;19.85;;
25073;SDS011;13066;52.042;5.648;2023-12-07T09:20:21;24.50;;;19.05;;
25073;SDS011;13066;52.042;5.648;2023-12-07T09:22:51;25.48;;;19.33;;
25073;SDS011;13066;52.042;5.648;2023-12-07T09:25:21;24.90;;;18.80;;
25073;SDS011;13066;52.042;5.648;2023-12-07T09:27:49;25.75;;;19.98;;
25073;SDS011;13066;52.042;5.648;2023-12-07T09:30:17;28.25;;;20.20;;
25073;SDS011;13066;52.042;5.648;2023-12-07T09:32:45;29.35;;;21.92;;
25073;SDS011;13066;52.042;5.648;2023-12-07T09:35:15;28.38;;;21.58;;
25073;SDS011;13066;52.042;5.648;2023-12-07T09:37:47;28.30;;;21.50;;
25073;SDS011;13066;52.042;5.648;2023-12-07T09:40:16;26.52;;;19.70;;
25073;SDS011;13066;52.042;5.648;2023-12-07T09:42:46;28.25;;;21.27;;
25073;SDS011;13066;52.042;5.648;2023-12-07T09:45:14;29.45;;;21.42;;
25073;SDS011;13066;52.042;5.648;2023-12-07T09:47:46;25.42;;;20.00;;
25073;SDS011;13066;52.042;5.648;2023-12-07T09:50:17;24.30;;;18.85;;
25073;SDS011;13066;52.042;5.648;2023-12-07T09:52:48;24.38;;;18.73;;
25073;SDS011;13066;52.042;5.648;2023-12-07T09:55:31;26.25;;;19.83;;
25073;SDS011;13066;52.042;5.648;2023-12-07T09:58:00;31.55;;;24.25;;
25073;SDS011;13066;52.042;5.648;2023-12-07T10:00:28;38.75;;;29.15;;
25073;SDS011;13066;52.042;5.648;2023-12-07T10:02:57;35.38;;;27.20;;
25073;SDS011;13066;52.042;5.648;2023-12-07T10:05:26;29.73;;;23.13;;
25073;SDS011;13066;52.042;5.648;2023-12-07T10:07:55;26.35;;;21.55;;
25073;SDS011;13066;52.042;5.648;2023-12-07T10:10:23;22.45;;;18.02;;
25073;SDS011;13066;52.042;5.648;2023-12-07T10:12:53;19.98;;;15.63;;
25073;SDS011;13066;52.042;5.648;2023-12-07T10:15:22;21.05;;;16.00;;
25073;SDS011;13066;52.042;5.648;2023-12-07T10:17:52;17.80;;;13.70;;
25073;SDS011;13066;52.042;5.648;2023-12-07T10:20:22;19.80;;;15.70;;
25073;SDS011;13066;52.042;5.648;2023-12-07T10:23:01;19.02;;;14.30;;
25073;SDS011;13066;52.042;5.648;2023-12-07T10:25:30;19.00;;;14.45;;
25073;SDS011;13066;52.042;5.648;2023-12-07T10:27:59;19.33;;;14.23;;
25073;SDS011;13066;52.042;5.648;2023-12-07T10:30:28;20.38;;;14.52;;
25073;SDS011;13066;52.042;5.648;2023-12-07T10:32:56;17.67;;;13.40;;
25073;SDS011;13066;52.042;5.648;2023-12-07T10:35:24;18.42;;;14.15;;
25073;SDS011;13066;52.042;5.648;2023-12-07T10:37:53;17.23;;;12.95;;
25073;SDS011;13066;52.042;5.648;2023-12-07T10:40:22;17.08;;;13.45;;
25073;SDS011;13066;52.042;5.648;2023-12-07T10:42:51;15.63;;;12.35;;
25073;SDS011;13066;52.042;5.648;2023-12-07T10:45:22;20.77;;;15.02;;
25073;SDS011;13066;52.042;5.648;2023-12-07T10:47:52;18.95;;;14.18;;
25073;SDS011;13066;52.042;5.648;2023-12-07T10:50:22;21.50;;;15.10;;
25073;SDS011;13066;52.042;5.648;2023-12-07T10:52:51;21.65;;;16.23;;
25073;SDS011;13066;52.042;5.648;2023-12-07T10:55:28;22.65;;;16.60;;
25073;SDS011;13066;52.042;5.648;2023-12-07T10:57:57;22.67;;;16.00;;
25073;SDS011;13066;52.042;5.648;2023-12-07T11:00:27;20.00;;;15.50;;
25073;SDS011;13066;52.042;5.648;2023-12-07T11:03:09;21.73;;;16.77;;
25073;SDS011;13066;52.042;5.648;2023-12-07T11:05:38;26.80;;;18.27;;
25073;SDS011;13066;52.042;5.648;2023-12-07T11:08:07;27.60;;;18.50;;
25073;SDS011;13066;52.042;5.648;2023-12-07T11:10:42;36.85;;;22.50;;
25073;SDS011;13066;52.042;5.648;2023-12-07T11:13:16;36.30;;;23.08;;
25073;SDS011;13066;52.042;5.648;2023-12-07T11:15:46;26.02;;;19.27;;
25073;SDS011;13066;52.042;5.648;2023-12-07T11:18:14;29.83;;;20.35;;
25073;SDS011;13066;52.042;5.648;2023-12-07T11:20:43;27.10;;;19.52;;
25073;SDS011;13066;52.042;5.648;2023-12-07T11:23:15;27.35;;;20.10;;
25073;SDS011;13066;52.042;5.648;2023-12-07T11:25:47;27.23;;;19.42;;
25073;SDS011;13066;52.042;5.648;2023-12-07T11:28:16;26.98;;;18.48;;
25073;SDS011;13066;52.042;5.648;2023-12-07T11:30:45;26.60;;;18.23;;
25073;SDS011;13066;52.042;5.648;2023-12-07T11:33:14;28.67;;;19.58;;
25073;SDS011;13066;52.042;5.648;2023-12-07T11:38:35;25.67;;;18.27;;
25073;SDS011;13066;52.042;5.648;2023-12-07T11:41:05;25.02;;;18.65;;
25073;SDS011;13066;52.042;5.648;2023-12-07T11:43:41;30.33;;;21.27;;
25073;SDS011;13066;52.042;5.648;2023-12-07T11:46:13;31.73;;;21.27;;
25073;SDS011;13066;52.042;5.648;2023-12-07T11:48:48;30.00;;;21.02;;
25073;SDS011;13066;52.042;5.648;2023-12-07T11:51:17;30.25;;;20.75;;
25073;SDS011;13066;52.042;5.648;2023-12-07T11:53:45;30.17;;;20.42;;
25073;SDS011;13066;52.042;5.648;2023-12-07T11:56:17;30.92;;;21.52;;
25073;SDS011;13066;52.042;5.648;2023-12-07T11:58:48;28.60;;;21.55;;
25073;SDS011;13066;52.042;5.648;2023-12-07T12:01:17;30.08;;;21.35;;
25073;SDS011;13066;52.042;5.648;2023-12-07T12:03:45;28.10;;;21.10;;
25073;SDS011;13066;52.042;5.648;2023-12-07T12:06:14;30.27;;;21.35;;
25073;SDS011;13066;52.042;5.648;2023-12-07T12:08:42;31.13;;;21.48;;
25073;SDS011;13066;52.042;5.648;2023-12-07T12:11:10;30.00;;;21.23;;
25073;SDS011;13066;52.042;5.648;2023-12-07T12:13:40;28.33;;;20.63;;
25073;SDS011;13066;52.042;5.648;2023-12-07T12:16:08;29.27;;;20.48;;
25073;SDS011;13066;52.042;5.648;2023-12-07T12:18:37;30.25;;;20.80;;
25073;SDS011;13066;52.042;5.648;2023-12-07T12:21:06;35.55;;;24.23;;
25073;SDS011;13066;52.042;5.648;2023-12-07T12:23:35;30.85;;;23.05;;
25073;SDS011;13066;52.042;5.648;2023-12-07T12:26:04;30.42;;;23.42;;
25073;SDS011;13066;52.042;5.648;2023-12-07T12:28:33;31.13;;;23.73;;
25073;SDS011;13066;52.042;5.648;2023-12-07T12:33:37;29.38;;;21.92;;
25073;SDS011;13066;52.042;5.648;2023-12-07T12:36:06;29.67;;;22.02;;
25073;SDS011;13066;52.042;5.648;2023-12-07T12:38:37;32.72;;;23.45;;
25073;SDS011;13066;52.042;5.648;2023-12-07T12:41:10;28.55;;;21.90;;
25073;SDS011;13066;52.042;5.648;2023-12-07T12:43:39;33.38;;;23.75;;
25073;SDS011;13066;52.042;5.648;2023-12-07T12:46:09;31.00;;;23.38;;
25073;SDS011;13066;52.042;5.648;2023-12-07T12:48:52;30.90;;;22.88;;
25073;SDS011;13066;52.042;5.648;2023-12-07T12:51:22;28.52;;;21.58;;
25073;SDS011;13066;52.042;5.648;2023-12-07T12:53:53;30.23;;;22.92;;
25073;SDS011;13066;52.042;5.648;2023-12-07T12:56:22;29.75;;;22.05;;
25073;SDS011;13066;52.042;5.648;2023-12-07T12:58:50;32.08;;;22.85;;
25073;SDS011;13066;52.042;5.648;2023-12-07T13:01:21;32.35;;;23.42;;
25073;SDS011;13066;52.042;5.648;2023-12-07T13:03:49;34.22;;;24.10;;
25073;SDS011;13066;52.042;5.648;2023-12-07T13:06:17;32.47;;;24.08;;
25073;SDS011;13066;52.042;5.648;2023-12-07T13:08:46;35.17;;;24.73;;
25073;SDS011;13066;52.042;5.648;2023-12-07T13:11:15;35.03;;;24.60;;
25073;SDS011;13066;52.042;5.648;2023-12-07T13:13:44;34.53;;;24.45;;
25073;SDS011;13066;52.042;5.648;2023-12-07T13:16:14;33.08;;;23.77;;
25073;SDS011;13066;52.042;5.648;2023-12-07T13:18:44;33.92;;;24.08;;
25073;SDS011;13066;52.042;5.648;2023-12-07T13:21:13;34.85;;;25.20;;
25073;SDS011;13066;52.042;5.648;2023-12-07T13:23:43;28.90;;;22.33;;
25073;SDS011;13066;52.042;5.648;2023-12-07T13:26:13;30.63;;;23.30;;
25073;SDS011;13066;52.042;5.648;2023-12-07T13:28:41;33.08;;;23.30;;
25073;SDS011;13066;52.042;5.648;2023-12-07T13:31:10;36.58;;;25.13;;
25073;SDS011;13066;52.042;5.648;2023-12-07T13:33:38;33.85;;;23.70;;
25073;SDS011;13066;52.042;5.648;2023-12-07T13:36:20;36.05;;;25.63;;
25073;SDS011;13066;52.042;5.648;2023-12-07T13:38:50;40.78;;;25.88;;
25073;SDS011;13066;52.042;5.648;2023-12-07T13:41:19;41.17;;;29.00;;
25073;SDS011;13066;52.042;5.648;2023-12-07T13:43:47;41.22;;;28.45;;
25073;SDS011;13066;52.042;5.648;2023-12-07T13:46:17;39.45;;;27.98;;
25073;SDS011;13066;52.042;5.648;2023-12-07T13:48:45;35.20;;;26.35;;
25073;SDS011;13066;52.042;5.648;2023-12-07T13:51:13;35.72;;;25.98;;
25073;SDS011;13066;52.042;5.648;2023-12-07T13:53:43;32.08;;;23.63;;
25073;SDS011;13066;52.042;5.648;2023-12-07T13:56:11;33.53;;;24.40;;
25073;SDS011;13066;52.042;5.648;2023-12-07T13:58:40;39.75;;;26.90;;
25073;SDS011;13066;52.042;5.648;2023-12-07T14:01:08;38.13;;;25.95;;
25073;SDS011;13066;52.042;5.648;2023-12-07T14:03:36;36.95;;;26.92;;
25073;SDS011;13066;52.042;5.648;2023-12-07T14:06:04;36.20;;;25.45;;
25073;SDS011;13066;52.042;5.648;2023-12-07T14:08:48;36.80;;;26.75;;
25073;SDS011;13066;52.042;5.648;2023-12-07T14:11:16;39.13;;;26.02;;
25073;SDS011;13066;52.042;5.648;2023-12-07T14:13:45;36.72;;;26.48;;
25073;SDS011;13066;52.042;5.648;2023-12-07T14:16:15;38.25;;;28.00;;
25073;SDS011;13066;52.042;5.648;2023-12-07T14:18:58;39.13;;;27.60;;
25073;SDS011;13066;52.042;5.648;2023-12-07T14:21:40;41.42;;;29.52;;
25073;SDS011;13066;52.042;5.648;2023-12-07T14:24:23;41.17;;;28.70;;
25073;SDS011;13066;52.042;5.648;2023-12-07T14:26:51;44.47;;;31.20;;
25073;SDS011;13066;52.042;5.648;2023-12-07T14:29:19;48.80;;;32.60;;
25073;SDS011;13066;52.042;5.648;2023-12-07T14:31:53;49.80;;;33.83;;
25073;SDS011;13066;52.042;5.648;2023-12-07T14:34:21;49.13;;;33.20;;
25073;SDS011;13066;52.042;5.648;2023-12-07T14:37:02;50.47;;;31.98;;
25073;SDS011;13066;52.042;5.648;2023-12-07T14:39:35;48.00;;;31.50;;
25073;SDS011;13066;52.042;5.648;2023-12-07T14:42:03;46.60;;;31.52;;